createdAt,value
2023-03-14T00:02:07.590Z,6.70
2023-03-14T00:05:13.788Z,7.40
2023-03-14T00:08:15.426Z,7.00
2023-03-14T00:14:22.227Z,7.10
2023-03-14T00:17:24.018Z,6.40
2023-03-14T00:20:25.609Z,6.20
2023-03-14T00:26:29.688Z,6.50
2023-03-14T00:29:31.370Z,6.50
2023-03-14T00:32:33.039Z,7.10
2023-03-14T00:38:36.736Z,6.10
2023-03-14T00:41:38.435Z,5.50
2023-03-14T00:44:40.091Z,6.00
2023-03-14T00:50:43.226Z,5.10
2023-03-14T00:56:46.707Z,4.30
2023-03-14T00:59:48.307Z,4.00
2023-03-14T01:02:50.074Z,4.60
2023-03-14T01:05:51.814Z,5.20
2023-03-14T01:08:54.620Z,5.80
2023-03-14T01:11:56.138Z,4.70
2023-03-14T01:14:58.200Z,5.60
2023-03-14T01:17:59.901Z,5.20
2023-03-14T01:21:03.573Z,6.00
2023-03-14T01:24:07.594Z,5.60
2023-03-14T01:27:09.150Z,5.30
2023-03-14T01:30:12.364Z,5.10
2023-03-14T01:33:14.104Z,5.10
2023-03-14T01:36:15.773Z,5.60
2023-03-14T01:39:17.402Z,5.20
2023-03-14T01:46:05.894Z,5.30
2023-03-14T01:49:33.361Z,5.10
2023-03-14T01:52:39.427Z,5.20
2023-03-14T01:55:41.198Z,5.70
2023-03-14T01:58:45.997Z,4.90
2023-03-14T02:01:48.583Z,5.40
2023-03-14T02:05:11.888Z,5.60
2023-03-14T02:08:20.193Z,5.00
2023-03-14T02:11:22.312Z,6.20
2023-03-14T02:14:31.984Z,6.00
2023-03-14T02:17:34.302Z,6.00
2023-03-14T02:20:54.910Z,5.60
2023-03-14T02:24:19.968Z,5.00
2023-03-14T02:27:22.127Z,4.60
2023-03-14T02:30:27.300Z,5.10
2023-03-14T02:33:29.077Z,5.00
2023-03-14T02:36:31.217Z,4.70
2023-03-14T02:39:44.659Z,5.00
2023-03-14T02:42:46.362Z,5.50
2023-03-14T02:48:55.124Z,5.30
2023-03-14T02:51:56.801Z,5.30
2023-03-14T02:57:59.905Z,4.60
2023-03-14T03:04:03.097Z,4.80
2023-03-14T03:07:04.696Z,4.90
2023-03-14T03:10:06.981Z,5.50
2023-03-14T03:13:08.565Z,4.70
2023-03-14T03:16:10.186Z,5.10
2023-03-14T03:22:13.286Z,5.10
2023-03-14T03:28:16.441Z,5.40
2023-03-14T03:34:19.591Z,5.30
2023-03-14T03:37:21.225Z,5.00
2023-03-14T03:40:22.896Z,4.90
2023-03-14T03:43:24.429Z,5.30
2023-03-14T03:46:26.227Z,4.60
2023-03-14T03:49:32.306Z,5.10
2023-03-14T03:52:33.886Z,5.20
2023-03-14T03:55:35.661Z,5.40
2023-03-14T03:58:37.243Z,5.10
2023-03-14T04:01:38.854Z,5.00
2023-03-14T04:04:40.621Z,5.10
2023-03-14T04:07:42.344Z,4.80
2023-03-14T04:10:43.896Z,5.60
2023-03-14T04:13:45.537Z,5.80
2023-03-14T04:16:47.173Z,5.20
2023-03-14T04:19:51.952Z,6.40
2023-03-14T04:25:55.058Z,5.10
2023-03-14T04:28:56.678Z,5.30
2023-03-14T04:31:58.786Z,6.00
2023-03-14T04:35:00.411Z,5.80
2023-03-14T04:38:02.081Z,6.30
2023-03-14T04:44:05.951Z,5.60
2023-03-14T04:50:10.233Z,5.10
2023-03-14T04:53:11.895Z,6.50
2023-03-14T04:56:13.559Z,6.10
2023-03-14T05:02:16.785Z,6.50
2023-03-14T05:08:20.019Z,6.90
2023-03-14T05:14:23.284Z,7.40
2023-03-14T05:17:24.925Z,7.60
2023-03-14T05:20:26.580Z,7.00
2023-03-14T05:23:28.783Z,6.80
2023-03-14T05:29:31.970Z,6.40
2023-03-14T05:35:35.424Z,8.10
2023-03-14T05:41:38.551Z,6.70
2023-03-14T05:44:40.147Z,6.20
2023-03-14T05:47:41.869Z,7.30
2023-03-14T05:53:45.165Z,7.20
2023-03-14T05:59:48.462Z,7.30
2023-03-14T06:05:51.902Z,5.60
2023-03-14T06:08:53.476Z,6.30
2023-03-14T06:14:56.731Z,7.00
2023-03-14T06:20:59.970Z,7.60
2023-03-14T06:24:01.576Z,6.60
2023-03-14T06:30:05.749Z,5.60
2023-03-14T06:33:07.645Z,5.50
2023-03-14T06:36:09.678Z,5.40
2023-03-14T06:39:11.354Z,5.40
2023-03-14T06:42:12.865Z,6.00
2023-03-14T06:48:16.303Z,6.40
2023-03-14T06:51:18.026Z,6.40
2023-03-14T06:54:19.589Z,6.20
2023-03-14T06:57:21.142Z,5.80
2023-03-14T07:00:23.009Z,5.30
2023-03-14T07:03:24.809Z,5.60
2023-03-14T07:06:26.371Z,5.00
2023-03-14T07:09:27.965Z,3.90
2023-03-14T07:12:29.601Z,4.80
2023-03-14T07:15:31.502Z,4.50
2023-03-14T07:18:33.758Z,6.70
2023-03-14T07:21:35.392Z,4.60
2023-03-14T07:24:36.968Z,3.80
2023-03-14T07:27:38.886Z,4.50
2023-03-14T07:30:40.496Z,10.90
2023-03-14T07:33:42.077Z,6.20
2023-03-14T07:36:43.701Z,4.20
2023-03-14T07:39:45.614Z,4.40
2023-03-14T07:42:47.203Z,4.70
2023-03-14T07:45:51.255Z,4.30
2023-03-14T07:48:53.203Z,4.30
2023-03-14T07:51:54.756Z,4.10
2023-03-14T07:54:56.304Z,4.40
2023-03-14T07:57:57.883Z,4.50
2023-03-14T08:00:59.851Z,5.20
2023-03-14T08:04:01.531Z,4.90
2023-03-14T08:07:03.199Z,5.60
2023-03-14T08:10:05.852Z,5.30
2023-03-14T08:13:07.623Z,4.70
2023-03-14T08:16:09.639Z,4.80
2023-03-14T08:19:11.254Z,4.70
2023-03-14T08:22:12.898Z,4.20
2023-03-14T08:25:14.705Z,4.50
2023-03-14T08:28:16.394Z,4.30
2023-03-14T08:31:18.319Z,4.10
2023-03-14T08:34:20.037Z,4.50
2023-03-14T08:37:26.831Z,4.10
2023-03-14T08:40:28.885Z,4.30
2023-03-14T08:43:30.712Z,4.20
2023-03-14T08:46:32.489Z,4.40
2023-03-14T08:49:34.220Z,4.00
2023-03-14T08:52:35.936Z,4.60
2023-03-14T08:55:37.512Z,4.10
2023-03-14T08:58:39.186Z,3.80
2023-03-14T09:01:40.907Z,4.10
2023-03-14T09:04:42.708Z,4.00
2023-03-14T09:07:44.394Z,4.20
2023-03-14T09:10:45.983Z,4.50
2023-03-14T09:13:47.577Z,4.60
2023-03-14T09:16:49.349Z,4.00
2023-03-14T09:19:51.036Z,4.50
2023-03-14T09:22:52.592Z,4.40
2023-03-14T09:26:01.074Z,3.90
2023-03-14T09:29:02.812Z,4.00
2023-03-14T09:32:04.602Z,4.30
2023-03-14T09:35:06.305Z,4.20
2023-03-14T09:38:07.997Z,4.10
2023-03-14T09:41:17.044Z,4.20
2023-03-14T09:44:28.393Z,4.30
2023-03-14T09:47:30.404Z,4.30
2023-03-14T09:50:38.574Z,4.40
2023-03-14T09:53:46.135Z,4.00
2023-03-14T09:56:48.093Z,4.00
2023-03-14T09:59:50.700Z,4.40
2023-03-14T10:02:55.568Z,4.00
2023-03-14T10:05:57.603Z,3.70
2023-03-14T10:08:59.404Z,4.40
2023-03-14T10:12:11.231Z,4.70
2023-03-14T10:15:14.684Z,4.10
2023-03-14T10:18:16.506Z,4.10
2023-03-14T10:21:28.645Z,4.20
2023-03-14T10:24:32.759Z,4.10
2023-03-14T10:27:36.384Z,4.70
2023-03-14T10:30:45.672Z,4.30
2023-03-14T10:34:05.672Z,4.40
2023-03-14T10:37:27.864Z,4.20
2023-03-14T10:40:33.351Z,4.20
2023-03-14T10:43:36.964Z,4.00
2023-03-14T10:46:38.627Z,5.30
2023-03-14T10:49:40.201Z,4.30
2023-03-14T10:53:01.478Z,4.30
2023-03-14T10:56:04.510Z,4.30
2023-03-14T10:59:14.787Z,4.70
2023-03-14T11:02:32.322Z,4.50
2023-03-14T11:05:58.495Z,4.60
2023-03-14T11:09:03.594Z,4.30
2023-03-14T11:12:18.492Z,4.20
2023-03-14T11:15:47.070Z,4.20
2023-03-14T11:18:54.749Z,4.00
2023-03-14T11:22:18.225Z,4.20
2023-03-14T11:25:41.389Z,4.20
2023-03-14T11:28:50.636Z,4.90
2023-03-14T11:31:56.967Z,4.40
2023-03-14T11:35:00.423Z,4.70
2023-03-14T11:38:04.888Z,5.30
2023-03-14T11:41:11.624Z,5.10
2023-03-14T11:44:19.568Z,4.20
2023-03-14T11:47:30.414Z,3.90
2023-03-14T11:50:32.730Z,4.20
2023-03-14T11:53:49.560Z,4.60
2023-03-14T11:56:58.729Z,3.80
2023-03-14T12:00:05.360Z,4.20
2023-03-14T12:03:15.974Z,3.90
2023-03-14T12:06:17.481Z,4.20
2023-03-14T12:09:21.525Z,4.20
2023-03-14T12:12:25.841Z,4.10
2023-03-14T12:15:27.549Z,4.10
2023-03-14T12:18:34.031Z,3.80
2023-03-14T12:21:48.184Z,4.20
2023-03-14T12:24:52.959Z,4.50
2023-03-14T12:27:57.180Z,6.10
2023-03-14T12:31:36.973Z,4.60
2023-03-14T12:34:43.495Z,4.20
2023-03-14T12:37:46.858Z,4.10
2023-03-14T12:41:17.641Z,3.70
2023-03-14T12:44:31.649Z,4.20
2023-03-14T12:47:33.158Z,4.20
2023-03-14T12:50:46.532Z,4.10
2023-03-14T12:54:03.741Z,4.10
2023-03-14T12:57:28.120Z,4.30
2023-03-14T13:00:39.057Z,4.20
2023-03-14T13:03:46.741Z,4.30
2023-03-14T13:06:48.313Z,3.90
2023-03-14T13:13:21.715Z,4.90
2023-03-14T13:16:24.155Z,3.90
2023-03-14T13:19:30.464Z,4.30
2023-03-14T13:22:34.771Z,4.60
2023-03-14T13:25:37.225Z,4.10
2023-03-14T13:28:38.914Z,4.30
2023-03-14T13:31:45.066Z,4.40
2023-03-14T13:34:46.781Z,4.10
2023-03-14T13:37:50.057Z,4.50
2023-03-14T13:40:56.012Z,4.60
2023-03-14T13:44:07.512Z,4.10
2023-03-14T13:47:27.377Z,4.60
2023-03-14T13:50:28.969Z,5.40
2023-03-14T13:53:30.728Z,5.80
2023-03-14T13:56:33.824Z,5.70
2023-03-14T13:59:36.223Z,6.30
2023-03-14T14:02:39.301Z,5.60
2023-03-14T14:05:41.421Z,5.50
2023-03-14T14:08:43.189Z,4.90
2023-03-14T14:12:14.262Z,4.90
2023-03-14T14:15:25.331Z,5.30
2023-03-14T14:18:28.248Z,5.10
2023-03-14T14:21:29.903Z,5.20
2023-03-14T14:24:32.937Z,5.50
2023-03-14T14:27:38.295Z,6.30
2023-03-14T14:30:39.920Z,5.90
2023-03-14T14:33:42.743Z,5.90
2023-03-14T14:36:45.799Z,6.00
2023-03-14T14:39:49.114Z,5.20
2023-03-14T14:42:51.382Z,5.20
2023-03-14T14:45:54.777Z,5.30
2023-03-14T14:49:07.453Z,5.10
2023-03-14T14:52:18.466Z,5.20
2023-03-14T14:55:21.006Z,4.70
2023-03-14T14:58:27.565Z,4.10
2023-03-14T15:01:35.477Z,4.10
2023-03-14T15:04:37.133Z,4.40
2023-03-14T15:07:38.629Z,5.10
2023-03-14T15:10:41.764Z,4.50
2023-03-14T15:13:44.957Z,4.90
2023-03-14T15:16:46.484Z,5.10
2023-03-14T15:19:48.392Z,4.80
2023-03-14T15:22:50.640Z,4.70
2023-03-14T15:25:55.850Z,5.50
2023-03-14T15:28:58.189Z,5.60
2023-03-14T15:31:59.990Z,6.90
2023-03-14T15:35:04.622Z,6.50
2023-03-14T15:38:06.465Z,6.60
2023-03-14T15:41:10.495Z,6.40
2023-03-14T15:44:12.134Z,7.10
2023-03-14T15:47:14.200Z,6.10
2023-03-14T15:50:16.656Z,6.50
2023-03-14T15:53:18.519Z,6.10
2023-03-14T15:56:21.031Z,6.00
2023-03-14T15:59:23.763Z,6.90
2023-03-14T16:02:25.386Z,11.70
2023-03-14T16:05:26.976Z,11.60
2023-03-14T16:08:28.547Z,8.20
2023-03-14T16:11:30.147Z,7.50
2023-03-14T16:14:31.922Z,7.10
2023-03-14T16:17:33.969Z,7.80
2023-03-14T16:20:47.142Z,7.90
2023-03-14T16:23:49.029Z,9.10
2023-03-14T16:26:50.632Z,8.60
2023-03-14T16:29:52.137Z,9.20
2023-03-14T16:32:53.698Z,7.20
2023-03-14T16:35:57.100Z,6.90
2023-03-14T16:38:58.786Z,6.70
2023-03-14T16:42:00.336Z,7.00
2023-03-14T16:45:02.008Z,10.50
2023-03-14T16:48:03.707Z,12.90
2023-03-14T16:51:05.468Z,9.30
2023-03-14T16:54:07.087Z,9.00
2023-03-14T16:57:09.041Z,9.20
2023-03-14T17:00:11.511Z,9.80
2023-03-14T17:03:14.126Z,10.40
2023-03-14T17:10:05.948Z,12.40
2023-03-14T17:13:07.763Z,11.00
2023-03-14T17:16:09.920Z,8.20
2023-03-14T17:19:11.547Z,7.50
2023-03-14T17:22:23.300Z,7.50
2023-03-14T17:25:25.272Z,7.20
2023-03-14T17:28:27.978Z,7.60
2023-03-14T17:31:29.693Z,7.90
2023-03-14T17:34:31.356Z,7.30
2023-03-14T17:37:33.059Z,6.40
2023-03-14T17:40:34.701Z,6.70
2023-03-14T17:43:37.040Z,9.70
2023-03-14T17:46:38.956Z,11.90
2023-03-14T17:49:40.737Z,12.70
2023-03-14T17:52:42.815Z,15.40
2023-03-14T17:55:44.584Z,15.20
2023-03-14T17:58:46.133Z,16.90
2023-03-14T18:01:48.089Z,17.90
2023-03-14T18:04:50.421Z,16.20
2023-03-14T18:07:52.247Z,15.40
2023-03-14T18:10:54.398Z,14.80
2023-03-14T18:13:56.061Z,14.60
2023-03-14T18:19:59.023Z,14.40
2023-03-14T18:29:04.042Z,14.70
2023-03-14T18:32:05.976Z,14.30
2023-03-14T18:35:08.126Z,13.50
2023-03-14T18:38:09.653Z,14.20
2023-03-14T18:41:13.414Z,15.00
2023-03-14T18:44:15.130Z,16.00
2023-03-14T18:47:16.906Z,17.90
2023-03-14T18:50:18.735Z,20.50
2023-03-14T18:53:20.496Z,22.40
2023-03-14T18:56:22.555Z,20.50
2023-03-14T18:59:24.081Z,21.70
2023-03-14T19:02:26.111Z,21.20
2023-03-14T19:05:27.765Z,24.30
2023-03-14T19:08:29.464Z,26.00
2023-03-14T19:11:30.999Z,28.40
2023-03-14T19:14:32.636Z,26.60
2023-03-14T19:17:34.355Z,23.50
2023-03-14T19:20:36.224Z,25.00
2023-03-14T19:23:40.280Z,23.50
2023-03-14T19:26:41.951Z,23.30
2023-03-14T19:29:44.658Z,21.80
2023-03-14T19:32:46.301Z,20.70
2023-03-14T19:35:48.388Z,21.20
2023-03-14T19:38:51.056Z,19.80
2023-03-14T19:41:52.657Z,20.90
2023-03-14T19:44:54.342Z,20.60
2023-03-14T19:47:55.913Z,20.90
2023-03-14T19:54:03.692Z,23.40
2023-03-14T19:57:05.388Z,28.10
2023-03-14T20:00:07.964Z,31.00
2023-03-14T20:03:09.709Z,33.80
2023-03-14T20:06:12.246Z,34.90
2023-03-14T20:09:13.854Z,37.00
2023-03-14T20:15:17.325Z,31.80
2023-03-14T20:18:18.911Z,34.40
2023-03-14T20:21:20.978Z,35.00
2023-03-14T20:24:22.821Z,31.80
2023-03-14T20:27:25.309Z,34.10
2023-03-14T20:33:31.521Z,25.70
2023-03-14T20:36:33.227Z,27.10
2023-03-14T20:39:35.825Z,28.90
2023-03-14T20:42:38.640Z,25.20
2023-03-14T20:45:43.203Z,24.80
2023-03-14T20:48:44.814Z,23.00
2023-03-14T20:51:47.557Z,23.20
2023-03-14T20:54:49.532Z,22.40
2023-03-14T20:57:51.058Z,25.30
2023-03-14T21:03:54.367Z,23.80
2023-03-14T21:06:55.924Z,24.90
2023-03-14T21:09:57.443Z,25.50
2023-03-14T21:16:01.700Z,23.00
2023-03-14T21:19:03.281Z,22.70
2023-03-14T21:25:08.545Z,22.50
2023-03-14T21:28:10.142Z,24.00
2023-03-14T21:31:12.416Z,23.90
2023-03-14T21:34:14.268Z,30.00
2023-03-14T21:37:16.774Z,38.20
2023-03-14T21:40:18.431Z,44.00
2023-03-14T21:46:21.525Z,40.70
2023-03-14T21:49:23.081Z,28.70
2023-03-14T21:52:25.994Z,27.00
2023-03-14T21:58:29.038Z,21.90
2023-03-14T22:01:30.779Z,24.40
2023-03-14T22:04:33.554Z,22.30
2023-03-14T22:07:35.125Z,23.10
2023-03-14T22:13:38.420Z,23.40
2023-03-14T22:16:40.114Z,19.40
2023-03-14T22:22:43.187Z,14.90
2023-03-14T22:28:48.102Z,17.60
2023-03-14T22:34:51.319Z,13.30
2023-03-14T22:40:54.488Z,10.40
2023-03-14T22:46:57.576Z,11.40
2023-03-14T22:53:00.576Z,9.80
2023-03-14T22:59:04.089Z,8.10
2023-03-14T23:02:05.553Z,7.80
2023-03-14T23:05:27.188Z,6.30
2023-03-14T23:08:28.723Z,5.70
2023-03-14T23:14:31.667Z,4.70
2023-03-14T23:23:37.182Z,4.20
2023-03-14T23:26:38.786Z,3.80
2023-03-14T23:29:40.454Z,3.90
2023-03-14T23:32:42.949Z,3.90
2023-03-14T23:35:44.585Z,3.50
2023-03-14T23:38:46.461Z,3.60
2023-03-14T23:41:47.998Z,3.80
2023-03-14T23:44:49.706Z,3.90
2023-03-14T23:47:51.348Z,3.80
2023-03-14T23:50:56.404Z,3.60
2023-03-14T23:53:57.962Z,3.60
2023-03-14T23:56:59.533Z,3.60
